Time;durP1;ratioP1;P1;durP2;ratioP2;P2;SDS_P1;SDS_P2;PMS_P1;PMS_P2;Temp;Humidity;BMP_temperature;BMP_pressure;BME280_temperature;BME280_humidity;BME280_pressure;Samples;Min_cycle;Max_cycle;Signal;HPM_P1;HPM_P2
2024/02/18 00:00:00;;;;;;;0.80;0.80;;;9.10;99.90;;;;;;6113262;23;20043;-86
2024/02/18 00:02:27;;;;;;;3.22;2.92;;;9.10;99.90;;;;;;6157949;23;20021;-87
2024/02/18 00:04:53;;;;;;;1.48;1.17;;;9.10;99.90;;;;;;6138200;23;20045;-87
2024/02/18 00:07:20;;;;;;;1.45;0.80;;;9.10;99.90;;;;;;6164979;23;20024;-88
2024/02/18 00:09:46;;;;;;;3.25;1.20;;;9.20;99.90;;;;;;6139582;23;20023;-88
2024/02/18 00:12:12;;;;;;;0.60;0.60;;;9.20;99.90;;;;;;6192894;23;20017;-87
2024/02/18 00:14:38;;;;;;;1.38;1.27;;;9.20;99.90;;;;;;6140598;23;20053;-89
2024/02/18 00:17:03;;;;;;;1.17;1.08;;;9.20;99.90;;;;;;6165478;23;20024;-88
2024/02/18 00:19:29;;;;;;;1.67;1.55;;;9.20;99.90;;;;;;6143655;23;20028;-89
2024/02/18 00:21:56;;;;;;;1.52;1.45;;;8.80;99.90;;;;;;6139513;23;20021;-87
2024/02/18 00:24:22;;;;;;;1.00;1.00;;;9.20;99.90;;;;;;6140655;23;20087;-88
2024/02/18 00:26:51;;;;;;;1.20;1.20;;;9.20;99.90;;;;;;6139671;23;20017;-87
2024/02/18 00:29:17;;;;;;;1.00;1.00;;;9.50;99.90;;;;;;6141287;23;20017;-87
2024/02/18 00:31:43;;;;;;;0.80;0.70;;;9.30;99.90;;;;;;6114604;23;20020;-87
2024/02/18 00:34:09;;;;;;;3.22;2.95;;;;;;;;;;6116511;23;20071;-87
2024/02/18 00:36:36;;;;;;;;;;;9.20;99.90;;;;;;6143185;23;20024;-86
2024/02/18 00:39:02;;;;;;;3.80;1.10;;;9.10;99.90;;;;;;6140089;23;19916;-87
2024/02/18 00:41:28;;;;;;;3.88;2.33;;;9.30;99.90;;;;;;6116469;23;20730;-87
2024/02/18 00:43:54;;;;;;;1.48;1.35;;;9.50;99.90;;;;;;6141125;23;20020;-88
2024/02/18 00:46:23;;;;;;;3.35;2.08;;;9.30;99.90;;;;;;6097886;23;20111;-87
2024/02/18 00:48:49;;;;;;;1.40;1.33;;;9.40;99.90;;;;;;6147330;23;20624;-85
2024/02/18 00:51:15;;;;;;;7.15;4.72;;;9.30;99.90;;;;;;6097931;23;20017;-86
2024/02/18 00:53:41;;;;;;;1.15;1.15;;;9.30;99.90;;;;;;6118627;23;20064;-88
2024/02/18 00:56:08;;;;;;;0.68;0.57;;;9.20;99.90;;;;;;6142876;23;20017;-88
2024/02/18 00:58:34;;;;;;;1.08;1.08;;;9.60;99.90;;;;;;6141332;23;20028;-88
2024/02/18 01:01:02;;;;;;;1.67;1.17;;;9.40;99.90;;;;;;6140908;23;20017;-88
2024/02/18 01:03:28;;;;;;;0.45;0.45;;;9.20;99.90;;;;;;6119623;23;20048;-88
2024/02/18 01:05:54;;;;;;;1.55;0.88;;;9.40;99.90;;;;;;6141262;23;20028;-89
2024/02/18 01:08:20;;;;;;;1.40;1.38;;;9.30;99.90;;;;;;6141376;23;20052;-86
2024/02/18 01:10:46;;;;;;;1.27;1.17;;;9.80;99.90;;;;;;6141524;23;20023;-87
2024/02/18 01:15:47;;;;;;;2.20;1.13;;;9.40;99.90;;;;;;6173724;23;20347;-89
2024/02/18 01:18:14;;;;;;;1.77;1.63;;;9.60;99.90;;;;;;6117053;23;20096;-88
2024/02/18 01:20:40;;;;;;;1.90;1.50;;;9.40;99.90;;;;;;6165105;23;20178;-88
2024/02/18 01:23:06;;;;;;;0.80;0.80;;;8.40;99.90;;;;;;6163795;23;20013;-86
2024/02/18 01:25:31;;;;;;;3.03;2.60;;;9.40;99.90;;;;;;6166646;23;20009;-88
2024/02/18 01:27:57;;;;;;;1.05;1.05;;;9.50;99.90;;;;;;6093573;23;20017;-88
2024/02/18 01:30:23;;;;;;;3.13;2.90;;;10.90;99.90;;;;;;6141989;23;20009;-88
2024/02/18 01:32:49;;;;;;;3.08;2.85;;;9.90;99.90;;;;;;6141953;23;20044;-87
2024/02/18 01:35:15;;;;;;;2.97;1.95;;;9.20;99.90;;;;;;6142435;23;20017;-88
2024/02/18 01:37:41;;;;;;;1.80;1.65;;;9.30;99.90;;;;;;6142328;23;20482;-87
2024/02/18 01:40:07;;;;;;;0.65;0.65;;;9.40;99.90;;;;;;6166278;23;20097;-89
2024/02/18 01:42:41;;;;;;;1.10;1.00;;;9.40;99.90;;;;;;6143007;23;20021;-87
2024/02/18 01:45:08;;;;;;;2.08;1.88;;;9.40;99.90;;;;;;6145463;23;20084;-84
2024/02/18 01:47:38;;;;;;;3.47;3.17;;;9.50;99.90;;;;;;6146744;23;20024;-87
2024/02/18 01:50:07;;;;;;;4.00;2.92;;;9.40;99.90;;;;;;6146229;23;20009;-86
2024/02/18 01:52:34;;;;;;;2.28;2.08;;;9.50;99.90;;;;;;6141616;23;20013;-86
2024/02/18 01:55:00;;;;;;;0.85;0.85;;;9.40;99.90;;;;;;6115070;23;20019;-87
2024/02/18 01:57:29;;;;;;;1.02;1.00;;;9.50;99.90;;;;;;6138475;23;20012;-87
2024/02/18 02:00:00;;;;;;;1.60;1.50;;;9.60;99.90;;;;;;6139809;23;20017;-84
2024/02/18 02:02:26;;;;;;;1.30;1.15;;;9.30;99.90;;;;;;6143009;23;20052;-85
2024/02/18 02:04:52;;;;;;;4.45;1.77;;;9.40;99.90;;;;;;6167354;23;20478;-84
2024/02/18 02:07:21;;;;;;;2.80;1.17;;;7.80;99.90;;;;;;6141730;23;20059;-85
2024/02/18 02:09:48;;;;;;;1.27;1.17;;;9.40;99.90;;;;;;6138629;23;20020;-86
2024/02/18 02:12:14;;;;;;;2.35;2.15;;;9.40;99.90;;;;;;6117223;23;20017;-87
2024/02/18 02:14:40;;;;;;;2.53;1.17;;;9.50;99.90;;;;;;6117125;23;20065;-86
2024/02/18 02:17:07;;;;;;;2.83;2.63;;;9.50;99.90;;;;;;6117399;23;20025;-88
2024/02/18 02:19:34;;;;;;;0.70;0.70;;;9.40;99.90;;;;;;6117712;23;20044;-89
2024/02/18 02:22:04;;;;;;;0.98;0.77;;;9.60;99.90;;;;;;6118950;23;20013;-90
2024/02/18 02:24:30;;;;;;;2.08;1.98;;;9.50;99.90;;;;;;6142779;23;20477;-87
2024/02/18 02:26:58;;;;;;;1.48;1.40;;;9.50;99.90;;;;;;6117616;23;20472;-87
2024/02/18 02:29:24;;;;;;;1.33;1.13;;;9.40;99.90;;;;;;6117829;23;20101;-86
2024/02/18 02:31:50;;;;;;;;;;;9.50;99.90;;;;;;6121351;23;20013;-86
2024/02/18 02:34:17;;;;;;;1.30;1.20;;;;;;;;;;6141070;23;19927;-87
2024/02/18 02:36:43;;;;;;;1.30;1.30;;;9.50;99.90;;;;;;6139003;23;20521;-87
2024/02/18 02:39:12;;;;;;;1.38;1.27;;;9.60;99.90;;;;;;6138324;23;20072;-87
2024/02/18 02:41:38;;;;;;;1.38;1.25;;;9.50;99.90;;;;;;6117853;23;20024;-88
2024/02/18 02:44:04;;;;;;;1.90;1.80;;;9.50;99.90;;;;;;6141970;23;20017;-88
2024/02/18 02:46:30;;;;;;;0.80;0.75;;;9.40;99.90;;;;;;6142536;23;20092;-88
2024/02/18 02:48:56;;;;;;;4.07;1.45;;;9.50;99.90;;;;;;6118764;23;20091;-87
2024/02/18 02:51:24;;;;;;;0.57;0.57;;;9.50;99.90;;;;;;6143137;23;20044;-88
2024/02/18 02:53:50;;;;;;;0.60;0.60;;;9.50;99.90;;;;;;6145166;23;20096;-86
2024/02/18 02:56:16;;;;;;;0.90;0.90;;;9.50;99.90;;;;;;6143761;23;20052;-86
2024/02/18 02:58:42;;;;;;;1.05;1.02;;;9.50;99.90;;;;;;6120402;23;20021;-88
2024/02/18 03:01:07;;;;;;;0.68;0.68;;;9.50;99.90;;;;;;6142261;23;20101;-88
2024/02/18 03:03:33;;;;;;;1.95;1.73;;;9.60;99.90;;;;;;6142070;23;20017;-88
2024/02/18 03:06:00;;;;;;;1.42;1.17;;;9.50;99.90;;;;;;6115889;23;20443;-88
2024/02/18 03:08:26;;;;;;;1.85;1.75;;;9.50;99.90;;;;;;6145010;23;20020;-87
2024/02/18 03:10:52;;;;;;;2.35;0.98;;;9.60;99.90;;;;;;6143803;23;20069;-88
2024/02/18 03:13:22;;;;;;;1.10;1.00;;;9.70;99.90;;;;;;6140831;23;20013;-87
2024/02/18 03:15:48;;;;;;;0.98;0.93;;;9.80;99.90;;;;;;6139908;23;20021;-87
2024/02/18 03:18:14;;;;;;;0.70;0.70;;;9.70;99.90;;;;;;6142269;23;20358;-88
2024/02/18 03:20:43;;;;;;;1.67;1.58;;;9.80;99.90;;;;;;6144281;23;20013;-88
2024/02/18 03:23:09;;;;;;;0.95;0.95;;;9.70;99.90;;;;;;6141824;23;20053;-88
2024/02/18 03:25:35;;;;;;;1.55;1.45;;;9.60;99.90;;;;;;6141969;23;20013;-87
2024/02/18 03:28:01;;;;;;;0.65;0.52;;;9.70;99.90;;;;;;6143031;23;20013;-89
2024/02/18 03:30:27;;;;;;;2.38;0.88;;;9.60;99.90;;;;;;6142843;23;20611;-88
2024/02/18 03:32:53;;;;;;;0.63;0.63;;;9.80;99.90;;;;;;6143777;23;20020;-87
2024/02/18 03:35:27;;;;;;;2.75;2.42;;;9.70;99.90;;;;;;6117855;23;20017;-88
2024/02/18 03:37:55;;;;;;;0.70;0.65;;;9.70;99.90;;;;;;6121298;23;20458;-88
2024/02/18 03:40:22;;;;;;;0.85;0.85;;;9.80;99.90;;;;;;6142158;23;20021;-87
2024/02/18 03:42:49;;;;;;;0.30;0.30;;;9.80;99.90;;;;;;6143545;23;20106;-89
2024/02/18 03:45:17;;;;;;;0.55;0.55;;;10.00;99.90;;;;;;6143214;23;20023;-89
2024/02/18 03:47:44;;;;;;;0.75;0.75;;;9.80;99.90;;;;;;6142762;23;20351;-88
2024/02/18 03:50:14;;;;;;;0.65;0.65;;;9.70;99.90;;;;;;6166562;23;20073;-87
2024/02/18 03:52:42;;;;;;;0.60;0.60;;;9.90;99.90;;;;;;6141452;23;20044;-87
2024/02/18 03:55:13;;;;;;;0.60;0.60;;;9.80;99.90;;;;;;6116547;23;20017;-87
2024/02/18 03:57:40;;;;;;;0.95;0.95;;;9.70;99.90;;;;;;6140525;23;20013;-86
2024/02/18 04:00:09;;;;;;;0.75;0.75;;;9.70;99.90;;;;;;6140832;23;20063;-88
2024/02/18 04:02:38;;;;;;;0.52;0.52;;;9.80;99.90;;;;;;6141562;23;20016;-88
2024/02/18 04:05:05;;;;;;;0.73;0.63;;;9.60;99.90;;;;;;6141560;23;20017;-85
2024/02/18 04:07:31;;;;;;;0.50;0.50;;;9.60;99.90;;;;;;6117203;23;20009;-86
2024/02/18 04:09:57;;;;;;;;;;;9.70;99.90;;;;;;6143085;23;20073;-85
2024/02/18 04:12:23;;;;;;;0.88;0.88;;;9.70;99.90;;;;;;6141244;23;19916;-83
2024/02/18 04:14:49;;;;;;;1.33;1.23;;;9.60;99.90;;;;;;6136524;23;20056;-86
2024/02/18 04:17:15;;;;;;;1.63;1.52;;;9.70;99.90;;;;;;6116635;23;20026;-85
2024/02/18 04:19:41;;;;;;;0.95;0.90;;;9.50;99.90;;;;;;6141165;23;20050;-86
2024/02/18 04:22:06;;;;;;;0.40;0.40;;;9.60;99.90;;;;;;6114591;23;20434;-87
2024/02/18 04:24:32;;;;;;;0.40;0.40;;;9.60;99.90;;;;;;6138171;23;20041;-84
2024/02/18 04:27:00;;;;;;;1.05;0.98;;;9.60;99.90;;;;;;6138296;23;20144;-85
2024/02/18 04:29:27;;;;;;;0.52;0.52;;;9.60;99.90;;;;;;6116076;23;20095;-88
2024/02/18 04:31:52;;;;;;;0.85;0.68;;;9.60;99.90;;;;;;6139162;23;20017;-87
2024/02/18 04:34:18;;;;;;;0.50;0.50;;;9.80;99.90;;;;;;6114618;23;20020;-87
2024/02/18 04:36:47;;;;;;;0.93;0.88;;;9.40;99.90;;;;;;6114265;23;20017;-86
2024/02/18 04:39:13;;;;;;;0.55;0.55;;;9.60;99.90;;;;;;6137539;23;20446;-85
2024/02/18 04:41:39;;;;;;;0.50;0.50;;;9.50;99.90;;;;;;6187922;23;20510;-83
2024/02/18 04:44:05;;;;;;;0.73;0.73;;;9.60;99.90;;;;;;6089372;23;20013;-84
2024/02/18 04:46:31;;;;;;;0.45;0.45;;;9.70;99.90;;;;;;6160850;23;20120;-85
2024/02/18 04:48:57;;;;;;;0.60;0.60;;;9.50;99.90;;;;;;6137325;23;20037;-84
2024/02/18 04:51:22;;;;;;;0.50;0.50;;;9.50;99.90;;;;;;6187991;23;20017;-84
2024/02/18 04:53:48;;;;;;;2.05;1.33;;;9.50;99.90;;;;;;6162272;23;20016;-85
2024/02/18 04:56:14;;;;;;;0.57;0.57;;;9.50;99.90;;;;;;6147001;23;20021;-85
2024/02/18 04:58:40;;;;;;;0.30;0.30;;;9.50;99.90;;;;;;6197965;23;20044;-86
2024/02/18 05:01:09;;;;;;;0.40;0.40;;;9.50;99.90;;;;;;6167245;23;20028;-87
2024/02/18 05:03:35;;;;;;;0.38;0.38;;;9.60;99.90;;;;;;6163889;23;20020;-86
2024/02/18 05:06:00;;;;;;;1.33;1.33;;;9.60;99.90;;;;;;6114762;23;20013;-84
2024/02/18 05:08:26;;;;;;;0.70;0.70;;;9.60;99.90;;;;;;6188897;23;20060;-83
2024/02/18 05:10:52;;;;;;;0.60;0.60;;;9.60;99.90;;;;;;6164567;23;20012;-84
2024/02/18 05:13:17;;;;;;;0.57;0.57;;;9.60;99.90;;;;;;6191897;23;20335;-84
2024/02/18 05:15:46;;;;;;;0.43;0.43;;;9.70;99.90;;;;;;6192438;23;20100;-85
2024/02/18 05:18:12;;;;;;;0.57;0.57;;;9.50;99.90;;;;;;6190717;23;20021;-82
2024/02/18 05:20:37;;;;;;;1.33;1.05;;;9.50;99.90;;;;;;6186734;23;20068;-84
2024/02/18 05:23:03;;;;;;;0.40;0.40;;;9.50;99.90;;;;;;6159396;23;20013;-83
2024/02/18 05:25:29;;;;;;;1.70;0.65;;;9.40;99.90;;;;;;6185823;23;20443;-84
2024/02/18 05:27:55;;;;;;;0.45;0.45;;;9.40;99.90;;;;;;6136830;23;20021;-84
2024/02/18 05:30:20;;;;;;;0.52;0.52;;;9.40;99.90;;;;;;6110921;23;20013;-85
2024/02/18 05:32:46;;;;;;;0.50;0.50;;;9.50;99.90;;;;;;6159730;23;20017;-84
2024/02/18 05:35:12;;;;;;;0.68;0.68;;;9.40;99.90;;;;;;6160172;23;20017;-84
2024/02/18 05:37:37;;;;;;;0.93;0.93;;;9.30;99.90;;;;;;6188388;23;20347;-84
2024/02/18 05:40:04;;;;;;;0.30;0.30;;;9.40;99.90;;;;;;6185698;23;20453;-84
2024/02/18 05:42:30;;;;;;;0.93;0.73;;;9.40;99.90;;;;;;6133696;23;20023;-83
2024/02/18 05:44:55;;;;;;;0.43;0.43;;;9.30;99.90;;;;;;6158882;23;20056;-83
2024/02/18 05:47:21;;;;;;;0.50;0.50;;;9.30;99.90;;;;;;6111323;23;20021;-84
2024/02/18 05:49:47;;;;;;;0.70;0.70;;;9.30;99.90;;;;;;6134512;23;20016;-84
2024/02/18 05:52:12;;;;;;;0.40;0.40;;;9.30;99.90;;;;;;6134161;23;20013;-84
2024/02/18 05:54:38;;;;;;;1.95;0.77;;;9.30;99.90;;;;;;6110588;23;20024;-84
2024/02/18 05:57:08;;;;;;;0.70;0.70;;;9.30;99.90;;;;;;6110813;23;20019;-83
2024/02/18 05:59:34;;;;;;;0.88;0.88;;;9.30;99.90;;;;;;6159172;23;20073;-84
2024/02/18 06:01:59;;;;;;;0.40;0.40;;;9.30;99.90;;;;;;6185462;23;20021;-85
2024/02/18 06:04:25;;;;;;;0.60;0.60;;;9.20;99.90;;;;;;6159812;23;20020;-86
2024/02/18 06:06:51;;;;;;;0.45;0.45;;;9.30;99.90;;;;;;6135411;23;20075;-84
2024/02/18 06:09:16;;;;;;;0.60;0.60;;;9.30;99.90;;;;;;6186318;23;20013;-85
2024/02/18 06:11:42;;;;;;;0.93;0.93;;;9.30;99.90;;;;;;6139086;23;20013;-86
2024/02/18 06:14:08;;;;;;;0.57;0.57;;;9.30;99.90;;;;;;6197788;23;20013;-87
2024/02/18 06:16:34;;;;;;;0.45;0.45;;;9.30;99.90;;;;;;6170607;23;20447;-87
2024/02/18 06:18:59;;;;;;;0.30;0.30;;;9.30;99.90;;;;;;6170517;23;20009;-88
2024/02/18 06:21:25;;;;;;;0.32;0.32;;;9.30;99.90;;;;;;6120841;23;20021;-88
2024/02/18 06:23:55;;;;;;;0.38;0.38;;;9.30;99.90;;;;;;6148933;23;20017;-89
2024/02/18 06:26:21;;;;;;;0.32;0.32;;;9.20;99.90;;;;;;6200977;23;20021;-87
2024/02/18 06:28:47;;;;;;;0.35;0.35;;;9.30;99.90;;;;;;6150153;23;20040;-87
2024/02/18 06:31:13;;;;;;;1.15;1.05;;;9.30;99.90;;;;;;6151386;23;20017;-88
2024/02/18 06:33:39;;;;;;;0.50;0.50;;;9.20;99.90;;;;;;6174339;23;20009;-88
2024/02/18 06:36:05;;;;;;;0.40;0.40;;;9.20;99.90;;;;;;6172935;23;20017;-89
2024/02/18 06:38:30;;;;;;;0.73;0.73;;;9.20;99.90;;;;;;6147834;23;20024;-88
2024/02/18 06:40:57;;;;;;;0.70;0.70;;;9.30;99.90;;;;;;6149766;23;20017;-87
2024/02/18 06:43:23;;;;;;;0.65;0.65;;;9.30;99.90;;;;;;6176035;23;20017;-87
2024/02/18 06:45:48;;;;;;;0.60;0.60;;;9.20;99.90;;;;;;6199528;23;20017;-88
2024/02/18 06:48:14;;;;;;;0.40;0.40;;;9.30;99.90;;;;;;6176181;23;20041;-89
2024/02/18 06:50:40;;;;;;;0.40;0.40;;;9.30;99.90;;;;;;6174961;23;20024;-86
2024/02/18 06:53:06;;;;;;;0.60;0.60;;;9.20;99.90;;;;;;6151423;23;20020;-87
2024/02/18 06:55:32;;;;;;;0.40;0.40;;;9.20;99.90;;;;;;6174777;23;20451;-88
2024/02/18 06:57:58;;;;;;;0.70;0.70;;;9.20;99.90;;;;;;6175753;23;20031;-88
2024/02/18 07:00:23;;;;;;;0.65;0.65;;;9.20;99.90;;;;;;6175009;23;20017;-90
2024/02/18 07:02:49;;;;;;;0.40;0.40;;;9.20;99.90;;;;;;6176249;23;20017;-88
2024/02/18 07:05:15;;;;;;;0.70;0.70;;;9.20;99.90;;;;;;6201240;23;20017;-88
2024/02/18 07:07:40;;;;;;;0.45;0.45;;;9.20;99.90;;;;;;6175290;23;20010;-89
2024/02/18 07:10:07;;;;;;;0.95;0.95;;;9.20;99.90;;;;;;6149870;23;20017;-90
2024/02/18 07:12:33;;;;;;;0.70;0.70;;;9.20;99.90;;;;;;6200614;23;20091;-87
2024/02/18 07:14:59;;;;;;;0.68;0.68;;;9.20;99.90;;;;;;6150088;23;20021;-88
2024/02/18 07:17:25;;;;;;;0.80;0.80;;;9.20;99.90;;;;;;6201381;23;20052;-88
2024/02/18 07:19:51;;;;;;;0.30;0.30;;;;;;;;;;6202340;23;20016;-88
2024/02/18 07:22:17;;;;;;;;;;;9.20;99.90;;;;;;6169182;23;20017;-84
2024/02/18 07:24:44;;;;;;;0.57;0.57;;;9.20;99.90;;;;;;6163698;23;19926;-84
2024/02/18 07:27:10;;;;;;;0.60;0.60;;;9.20;99.90;;;;;;6189921;23;20012;-84
2024/02/18 07:29:36;;;;;;;0.40;0.40;;;9.20;99.90;;;;;;6188601;23;20055;-84
2024/02/18 07:32:02;;;;;;;0.75;0.65;;;9.20;99.90;;;;;;6162307;23;20439;-82
2024/02/18 07:34:28;;;;;;;0.40;0.40;;;9.20;99.90;;;;;;6162572;23;20013;-84
2024/02/18 07:36:54;;;;;;;0.50;0.50;;;9.10;99.90;;;;;;6187225;23;20009;-83
2024/02/18 07:39:20;;;;;;;;;;;9.10;99.90;;;;;;6189301;23;20009;-85
2024/02/18 07:41:46;;;;;;;0.80;0.80;;;9.10;99.90;;;;;;6186178;23;20153;-83
2024/02/18 07:44:17;;;;;;;0.50;0.50;;;9.10;99.90;;;;;;6189000;23;20024;-86
2024/02/18 07:46:43;;;;;;;0.55;0.55;;;9.10;99.90;;;;;;6186804;23;20009;-81
2024/02/18 07:49:10;;;;;;;0.60;0.60;;;9.10;99.90;;;;;;6162439;23;20019;-83
2024/02/18 07:51:36;;;;;;;0.38;0.38;;;9.50;99.90;;;;;;6187662;23;20017;-85
2024/02/18 07:54:04;;;;;;;0.55;0.55;;;9.10;99.90;;;;;;6187170;23;20500;-84
2024/02/18 07:56:29;;;;;;;0.40;0.40;;;9.10;99.90;;;;;;6161362;23;20174;-83
2024/02/18 07:58:55;;;;;;;0.30;0.30;;;9.20;99.90;;;;;;6161864;23;20582;-83
2024/02/18 08:01:21;;;;;;;0.50;0.50;;;9.20;99.90;;;;;;6190893;23;20103;-84
2024/02/18 08:03:47;;;;;;;0.60;0.60;;;;;;;;;;6186346;23;20017;-85
2024/02/18 08:06:13;;;;;;;0.32;0.32;;;9.20;99.90;;;;;;6192788;23;20029;-85
2024/02/18 08:08:38;;;;;;;2.08;1.40;;;9.20;99.90;;;;;;6162968;23;20506;-83
2024/02/18 08:11:04;;;;;;;0.40;0.40;;;9.20;99.90;;;;;;6188791;23;20080;-85
2024/02/18 08:13:30;;;;;;;0.65;0.63;;;9.30;99.90;;;;;;6161263;23;20013;-83
2024/02/18 08:15:58;;;;;;;0.75;0.75;;;9.20;99.90;;;;;;6160429;23;20021;-82
2024/02/18 08:18:24;;;;;;;0.50;0.50;;;9.30;99.90;;;;;;6136772;23;20020;-84
2024/02/18 08:20:50;;;;;;;;;;;9.20;99.90;;;;;;6163511;23;20474;-83
2024/02/18 08:23:15;;;;;;;0.90;0.85;;;9.20;99.90;;;;;;6189994;23;19916;-83
2024/02/18 08:25:41;;;;;;;0.40;0.40;;;9.20;99.90;;;;;;6191163;23;20044;-83
2024/02/18 08:28:07;;;;;;;0.50;0.50;;;9.20;99.90;;;;;;6134997;23;20013;-83
2024/02/18 08:30:33;;;;;;;0.60;0.60;;;9.20;99.90;;;;;;6159549;23;20391;-82
2024/02/18 08:32:58;;;;;;;0.40;0.40;;;9.20;99.90;;;;;;6183992;23;20017;-82
2024/02/18 08:35:24;;;;;;;0.45;0.45;;;9.20;99.90;;;;;;6184476;23;20441;-84
2024/02/18 08:37:53;;;;;;;0.40;0.40;;;9.10;99.90;;;;;;6155327;23;20075;-82
2024/02/18 08:40:19;;;;;;;0.30;0.30;;;9.10;99.90;;;;;;6154801;23;20028;-81
2024/02/18 08:42:44;;;;;;;0.70;0.70;;;9.10;99.90;;;;;;6182058;23;20017;-81
2024/02/18 08:45:10;;;;;;;0.40;0.40;;;9.10;99.90;;;;;;6129548;23;20020;-80
2024/02/18 08:47:39;;;;;;;3.67;1.90;;;9.00;99.90;;;;;;6154307;23;20017;-82
2024/02/18 08:50:05;;;;;;;0.50;0.50;;;9.00;99.90;;;;;;6181182;23;20017;-83
2024/02/18 08:52:31;;;;;;;0.50;0.50;;;9.00;99.90;;;;;;6154586;23;20016;-83
2024/02/18 08:54:57;;;;;;;0.70;0.70;;;9.40;99.90;;;;;;6180233;23;20040;-80
2024/02/18 08:57:23;;;;;;;0.40;0.40;;;9.00;99.90;;;;;;6153779;23;20013;-81
2024/02/18 08:59:48;;;;;;;1.05;1.05;;;9.00;99.90;;;;;;6154721;23;20045;-81
2024/02/18 09:02:14;;;;;;;0.50;0.50;;;9.00;99.90;;;;;;6154401;23;20028;-81
2024/02/18 09:04:40;;;;;;;0.30;0.30;;;9.00;99.90;;;;;;6181105;23;20016;-81
2024/02/18 09:07:05;;;;;;;0.55;0.55;;;9.00;99.90;;;;;;6180436;23;20020;-80
2024/02/18 09:09:31;;;;;;;0.73;0.73;;;9.00;99.90;;;;;;6180549;23;20028;-81
2024/02/18 09:11:57;;;;;;;0.52;0.52;;;9.10;99.90;;;;;;6152925;23;20320;-79
2024/02/18 09:14:22;;;;;;;0.40;0.40;;;9.10;99.90;;;;;;6155094;23;20035;-78
2024/02/18 09:16:48;;;;;;;1.05;1.05;;;9.10;99.90;;;;;;6180332;23;20024;-79
2024/02/18 09:19:14;;;;;;;0.50;0.50;;;9.10;99.90;;;;;;6129682;23;20426;-80
2024/02/18 09:21:40;;;;;;;0.50;0.50;;;9.20;99.90;;;;;;6154350;23;20055;-79
2024/02/18 09:24:06;;;;;;;0.47;0.47;;;9.20;99.90;;;;;;6153547;23;20025;-81
2024/02/18 09:26:31;;;;;;;0.85;0.77;;;9.20;99.90;;;;;;6154240;23;20352;-80
2024/02/18 09:28:57;;;;;;;1.15;1.15;;;9.20;99.90;;;;;;6180144;23;20020;-83
2024/02/18 09:31:23;;;;;;;0.47;0.47;;;9.30;99.90;;;;;;6148889;23;20017;-81
2024/02/18 09:33:49;;;;;;;0.47;0.40;;;9.30;99.90;;;;;;6180404;23;20021;-83
2024/02/18 09:36:14;;;;;;;0.40;0.40;;;9.30;99.90;;;;;;6129709;23;20024;-81
2024/02/18 09:38:40;;;;;;;0.40;0.40;;;9.40;99.90;;;;;;6154772;23;20028;-80
2024/02/18 09:41:15;;;;;;;0.30;0.30;;;9.30;99.90;;;;;;6153766;23;20078;-82
2024/02/18 09:43:44;;;;;;;0.57;0.57;;;8.60;99.90;;;;;;6155248;23;20026;-81
2024/02/18 09:46:11;;;;;;;0.40;0.40;;;9.40;99.90;;;;;;6152278;23;20029;-82
2024/02/18 09:48:37;;;;;;;0.30;0.30;;;9.40;99.90;;;;;;6130521;23;20589;-82
2024/02/18 09:51:04;;;;;;;0.50;0.50;;;9.50;99.90;;;;;;6183241;23;20016;-81
2024/02/18 09:53:33;;;;;;;0.40;0.40;;;9.40;99.90;;;;;;6182904;23;20386;-82
2024/02/18 09:56:00;;;;;;;0.82;0.82;;;9.40;99.90;;;;;;6131757;23;20048;-82
2024/02/18 09:58:26;;;;;;;1.00;0.80;;;9.20;99.90;;;;;;6131347;23;20138;-82
2024/02/18 10:00:53;;;;;;;0.50;0.50;;;9.40;99.90;;;;;;6129589;23;20413;-80
2024/02/18 10:03:19;;;;;;;0.40;0.40;;;9.40;99.90;;;;;;6131653;23;20024;-81
2024/02/18 10:05:45;;;;;;;0.50;0.50;;;9.40;99.90;;;;;;6155967;23;20017;-79
2024/02/18 10:08:11;;;;;;;0.40;0.40;;;9.40;99.90;;;;;;6131145;23;20017;-82
2024/02/18 10:10:37;;;;;;;0.40;0.40;;;9.40;99.90;;;;;;6184413;23;20338;-79
2024/02/18 10:13:07;;;;;;;0.40;0.40;;;9.40;99.90;;;;;;6155586;23;20093;-80
2024/02/18 10:15:34;;;;;;;0.47;0.47;;;9.40;99.90;;;;;;6181564;23;20083;-80
2024/02/18 10:18:02;;;;;;;0.40;0.40;;;9.30;99.90;;;;;;6156795;23;20017;-81
2024/02/18 10:20:28;;;;;;;1.15;0.93;;;9.30;99.90;;;;;;6181960;23;20394;-80
2024/02/18 10:22:54;;;;;;;0.40;0.40;;;9.30;99.90;;;;;;6155328;23;20414;-80
2024/02/18 10:25:20;;;;;;;0.45;0.45;;;9.20;99.90;;;;;;6081914;23;20486;-79
2024/02/18 10:27:46;;;;;;;0.50;0.50;;;9.20;99.90;;;;;;6182404;23;20017;-78
2024/02/18 10:30:12;;;;;;;0.50;0.50;;;9.20;99.90;;;;;;6105844;23;20045;-80
2024/02/18 10:32:39;;;;;;;0.38;0.38;;;9.20;99.90;;;;;;6179452;23;20017;-80
2024/02/18 10:35:05;;;;;;;0.43;0.43;;;9.20;99.90;;;;;;6153812;23;20474;-80
2024/02/18 10:37:37;;;;;;;0.60;0.60;;;9.10;99.90;;;;;;6181550;23;20021;-81
2024/02/18 10:40:13;;;;;;;1.20;1.20;;;9.10;99.90;;;;;;6154116;23;20017;-80
2024/02/18 10:42:43;;;;;;;0.50;0.50;;;9.10;99.90;;;;;;6154058;23;20009;-80
2024/02/18 10:45:12;;;;;;;0.40;0.40;;;9.20;99.90;;;;;;6153939;23;20252;-81
2024/02/18 10:47:41;;;;;;;0.40;0.40;;;9.20;99.90;;;;;;6128272;23;20013;-80
2024/02/18 10:50:07;;;;;;;0.40;0.40;;;9.20;99.90;;;;;;6129780;23;20064;-80
2024/02/18 10:52:44;;;;;;;;;;;9.20;99.90;;;;;;6131867;23;20021;-81
2024/02/18 10:55:15;;;;;;;0.32;0.32;;;9.30;99.90;;;;;;6155373;23;19916;-80
2024/02/18 10:57:54;;;;;;;0.75;0.75;;;9.30;99.90;;;;;;6181982;23;20040;-80
2024/02/18 11:00:24;;;;;;;0.40;0.40;;;9.30;99.90;;;;;;6155146;23;20009;-80
2024/02/18 11:03:13;;;;;;;0.60;0.60;;;9.30;99.90;;;;;;6130197;23;20020;-80
2024/02/18 11:05:40;;;;;;;0.30;0.30;;;9.30;99.90;;;;;;6168693;23;20025;-80
2024/02/18 11:08:07;;;;;;;0.60;0.60;;;9.30;99.90;;;;;;6155757;23;20028;-78
2024/02/18 11:10:35;;;;;;;0.60;0.60;;;9.30;99.90;;;;;;6181463;23;20450;-80
2024/02/18 11:13:02;;;;;;;0.57;0.57;;;9.30;99.90;;;;;;6182795;23;20013;-79
2024/02/18 11:15:28;;;;;;;0.50;0.50;;;9.20;99.90;;;;;;6182264;23;20016;-79
2024/02/18 11:17:55;;;;;;;0.43;0.43;;;9.20;99.90;;;;;;6154966;23;20023;-79
2024/02/18 11:20:22;;;;;;;0.60;0.60;;;9.20;99.90;;;;;;6131380;23;20017;-81
2024/02/18 11:22:50;;;;;;;0.50;0.50;;;9.20;99.90;;;;;;6154926;23;20418;-82
2024/02/18 11:25:19;;;;;;;0.77;0.77;;;9.20;99.90;;;;;;6181788;23;20025;-78
2024/02/18 11:27:45;;;;;;;0.40;0.40;;;9.20;99.90;;;;;;6155706;23;20056;-79
2024/02/18 11:30:12;;;;;;;0.60;0.60;;;9.10;99.90;;;;;;6106572;23;20040;-79
2024/02/18 11:32:38;;;;;;;0.68;0.68;;;9.10;99.90;;;;;;6155463;23;20013;-79
2024/02/18 11:35:13;;;;;;;0.47;0.47;;;9.10;99.90;;;;;;6130973;23;20017;-80
2024/02/18 11:37:39;;;;;;;0.40;0.40;;;8.00;99.90;;;;;;6157313;23;20017;-81
2024/02/18 11:40:10;;;;;;;;;;;9.10;99.90;;;;;;6183074;23;20019;-80
2024/02/18 11:42:37;;;;;;;1.45;0.82;;;9.10;99.90;;;;;;6130604;23;19915;-80
2024/02/18 11:45:12;;;;;;;0.57;0.57;;;9.00;99.90;;;;;;6155839;23;20016;-81
2024/02/18 11:47:49;;;;;;;0.65;0.65;;;9.00;99.90;;;;;;6154370;23;20024;-80
2024/02/18 11:50:17;;;;;;;0.43;0.43;;;9.00;99.90;;;;;;6182217;23;20013;-80
2024/02/18 11:52:45;;;;;;;0.30;0.30;;;9.00;99.90;;;;;;6182283;23;20017;-79
2024/02/18 11:55:18;;;;;;;0.40;0.40;;;9.00;99.90;;;;;;6107483;23;20013;-78
2024/02/18 11:57:44;;;;;;;0.50;0.50;;;9.00;99.90;;;;;;6130782;23;20021;-80
2024/02/18 12:00:12;;;;;;;0.40;0.40;;;9.00;99.90;;;;;;6155505;23;20482;-80
2024/02/18 12:02:39;;;;;;;0.50;0.50;;;9.00;99.90;;;;;;6155317;23;20009;-81
2024/02/18 12:05:06;;;;;;;0.40;0.40;;;9.00;99.90;;;;;;6154997;23;20021;-81
2024/02/18 12:07:36;;;;;;;0.40;0.40;;;9.00;99.90;;;;;;6181273;23;20015;-80
2024/02/18 12:10:02;;;;;;;0.30;0.30;;;9.00;99.90;;;;;;6181831;23;20092;-79
2024/02/18 12:12:28;;;;;;;0.50;0.50;;;9.00;99.90;;;;;;6180585;23;20021;-80
2024/02/18 12:14:55;;;;;;;0.40;0.40;;;9.00;99.90;;;;;;6183038;23;20391;-79
2024/02/18 12:17:24;;;;;;;0.75;0.75;;;9.00;99.90;;;;;;6152981;23;20033;-80
2024/02/18 12:19:51;;;;;;;1.33;1.15;;;9.00;99.90;;;;;;6182127;23;20303;-80
2024/02/18 12:22:27;;;;;;;0.40;0.40;;;8.90;99.90;;;;;;6155491;23;20024;-80
2024/02/18 12:24:54;;;;;;;0.40;0.40;;;8.90;99.90;;;;;;6155385;23;20376;-79
2024/02/18 12:27:21;;;;;;;0.40;0.40;;;8.90;99.90;;;;;;6130732;23;20414;-80
2024/02/18 12:29:48;;;;;;;0.57;0.57;;;8.90;99.90;;;;;;6130818;23;20017;-78
2024/02/18 12:32:14;;;;;;;0.43;0.43;;;8.90;99.90;;;;;;6104852;23;20399;-79
2024/02/18 12:34:48;;;;;;;0.40;0.40;;;8.80;99.90;;;;;;6154032;23;20466;-79
2024/02/18 12:37:14;;;;;;;5.47;1.00;;;8.80;99.90;;;;;;6181320;23;20013;-79
2024/02/18 12:39:40;;;;;;;0.70;0.70;;;8.80;99.90;;;;;;6180976;23;20350;-81
2024/02/18 12:42:06;;;;;;;0.68;0.68;;;8.80;99.90;;;;;;6154188;23;20013;-77
2024/02/18 12:44:33;;;;;;;0.47;0.47;;;8.80;99.90;;;;;;6181302;23;20347;-76
2024/02/18 12:47:02;;;;;;;0.30;0.30;;;8.80;99.90;;;;;;6179711;23;20013;-77
2024/02/18 12:49:28;;;;;;;0.52;0.52;;;8.80;99.90;;;;;;6181050;23;20009;-77
2024/02/18 12:52:21;;;;;;;0.50;0.50;;;8.80;99.90;;;;;;6180905;23;20013;-78
2024/02/18 12:54:47;;;;;;;0.40;0.40;;;8.80;99.90;;;;;;6180214;23;20060;-77
2024/02/18 12:57:12;;;;;;;0.47;0.47;;;8.80;99.90;;;;;;6180976;23;20013;-78
2024/02/18 12:59:38;;;;;;;1.50;0.88;;;8.80;99.90;;;;;;6154289;23;20013;-76